createdAt,value
2017-01-03T00:00:43.582Z,101204
2017-01-03T00:01:43.113Z,101211
2017-01-03T00:02:43.622Z,101206
2017-01-03T00:03:43.645Z,101210
2017-01-03T00:04:43.749Z,101204
2017-01-03T00:05:43.771Z,101202
2017-01-03T00:06:43.221Z,101187
2017-01-03T00:07:43.812Z,101194
2017-01-03T00:08:43.776Z,101201
2017-01-03T00:09:43.268Z,101189
2017-01-03T00:10:43.852Z,101194
2017-01-03T00:11:43.323Z,101199
2017-01-03T00:12:43.942Z,101200
2017-01-03T00:13:43.459Z,101198
2017-01-03T00:14:43.515Z,101196
2017-01-03T00:15:43.564Z,101196
2017-01-03T00:16:44.122Z,101194
2017-01-03T00:17:43.650Z,101191
2017-01-03T00:18:43.686Z,101196
2017-01-03T00:19:43.840Z,101194
2017-01-03T00:20:44.372Z,101183
2017-01-03T00:21:43.868Z,101192
2017-01-03T00:22:44.459Z,101193
2017-01-03T00:23:43.976Z,101192
2017-01-03T00:24:44.588Z,101195
2017-01-03T00:25:44.096Z,101190
2017-01-03T00:26:44.065Z,101189
2017-01-03T00:27:44.146Z,101190
2017-01-03T00:28:44.709Z,101191
2017-01-03T00:29:44.286Z,101192
2017-01-03T00:30:44.311Z,101191
2017-01-03T00:31:44.277Z,101192
2017-01-03T00:32:44.861Z,101196
2017-01-03T00:33:44.927Z,101187
2017-01-03T00:34:44.380Z,101195
2017-01-03T00:35:44.449Z,101194
2017-01-03T00:36:44.596Z,101185
2017-01-03T00:37:44.625Z,101191
2017-01-03T00:38:45.182Z,101193
2017-01-03T00:39:44.667Z,101187
2017-01-03T00:40:44.814Z,101196
2017-01-03T00:41:45.475Z,101186
2017-01-03T00:42:45.460Z,101194
2017-01-03T00:43:45.507Z,101184
2017-01-03T00:44:45.536Z,101189
2017-01-03T00:45:45.088Z,101183
2017-01-03T00:46:45.141Z,101185
2017-01-03T00:47:45.668Z,101184
2017-01-03T00:48:45.741Z,101183
2017-01-03T00:49:45.261Z,101186
2017-01-03T00:50:45.282Z,101185
2017-01-03T00:51:45.836Z,101183
2017-01-03T00:52:45.306Z,101185
2017-01-03T00:53:45.370Z,101185
2017-01-03T00:54:45.348Z,101178
2017-01-03T00:55:45.425Z,101181
2017-01-03T00:56:45.480Z,101184
2017-01-03T00:57:45.480Z,101185
2017-01-03T00:58:46.032Z,101180
2017-01-03T00:59:45.613Z,101183
2017-01-03T01:00:45.633Z,101183
2017-01-03T01:01:46.212Z,101185
2017-01-03T01:02:45.747Z,101184
2017-01-03T01:03:45.774Z,101177
2017-01-03T01:04:46.316Z,101178
2017-01-03T01:05:45.787Z,101184
2017-01-03T01:06:45.830Z,101181
2017-01-03T01:07:45.833Z,101186
2017-01-03T01:08:46.367Z,101188
2017-01-03T01:09:46.415Z,101184
2017-01-03T01:10:45.900Z,101174
2017-01-03T01:11:46.490Z,101183
2017-01-03T01:12:46.009Z,101184
2017-01-03T01:13:46.655Z,101180
2017-01-03T01:14:46.726Z,101189
2017-01-03T01:16:46.391Z,101189
2017-01-03T01:17:47.019Z,101182
2017-01-03T01:18:46.544Z,101196
2017-01-03T01:19:46.595Z,101203
2017-01-03T01:20:46.609Z,101204
2017-01-03T01:21:46.672Z,101205
2017-01-03T01:22:46.717Z,101200
2017-01-03T01:23:46.791Z,101212
2017-01-03T01:24:46.893Z,101218
2017-01-03T01:25:47.522Z,101214
2017-01-03T01:26:47.020Z,101218
2017-01-03T01:27:47.607Z,101215
2017-01-03T01:28:47.702Z,101215
2017-01-03T01:29:47.201Z,101215
2017-01-03T01:30:47.280Z,101207
2017-01-03T01:31:47.379Z,101215
2017-01-03T01:32:47.329Z,101210
2017-01-03T01:33:47.883Z,101215
2017-01-03T01:34:47.360Z,101208
2017-01-03T01:35:47.466Z,101216
2017-01-03T01:36:47.500Z,101208
2017-01-03T01:37:47.572Z,101215
2017-01-03T01:38:48.128Z,101222
2017-01-03T01:39:47.644Z,101217
2017-01-03T01:40:47.668Z,101221
2017-01-03T01:41:47.809Z,101219
2017-01-03T01:42:47.809Z,101217
2017-01-03T01:43:47.813Z,101232
2017-01-03T01:44:48.464Z,101227
2017-01-03T01:45:48.470Z,101227
2017-01-03T01:46:48.574Z,101226
2017-01-03T01:47:48.577Z,101232
2017-01-03T01:48:48.063Z,101236
2017-01-03T01:49:48.175Z,101229
2017-01-03T01:50:48.713Z,101232
2017-01-03T01:51:48.839Z,101229
2017-01-03T01:52:48.902Z,101234
2017-01-03T01:53:48.458Z,101230
2017-01-03T01:54:48.544Z,101223
2017-01-03T01:55:49.094Z,101230
2017-01-03T01:56:49.151Z,101226
2017-01-03T01:57:49.227Z,101222
2017-01-03T01:58:49.264Z,101228
2017-01-03T01:59:49.233Z,101225
2017-01-03T02:00:48.707Z,101222
2017-01-03T02:01:48.748Z,101228
2017-01-03T02:02:48.806Z,101219
2017-01-03T02:03:49.426Z,101232
2017-01-03T02:04:49.410Z,101234
2017-01-03T02:05:49.445Z,101231
2017-01-03T02:06:49.486Z,101233
2017-01-03T02:07:49.581Z,101234
2017-01-03T02:08:49.067Z,101229
2017-01-03T02:09:49.159Z,101224
2017-01-03T02:10:49.188Z,101222
2017-01-03T02:11:49.728Z,101221
2017-01-03T02:12:49.231Z,101211
2017-01-03T02:13:49.241Z,101215
2017-01-03T02:14:49.288Z,101216
2017-01-03T02:15:49.347Z,101206
2017-01-03T02:16:49.428Z,101214
2017-01-03T02:17:49.494Z,101221
2017-01-03T02:18:50.072Z,101213
2017-01-03T02:19:49.624Z,101217
2017-01-03T02:20:49.667Z,101209
2017-01-03T02:21:49.658Z,101223
2017-01-03T02:22:50.254Z,101216
2017-01-03T02:23:49.827Z,101216
2017-01-03T02:24:50.452Z,101207
2017-01-03T02:25:50.500Z,101221
2017-01-03T02:26:50.525Z,101221
2017-01-03T02:27:50.581Z,101224
2017-01-03T02:28:50.107Z,101228
2017-01-03T02:29:50.721Z,101223
2017-01-03T02:30:50.853Z,101224
2017-01-03T02:31:50.852Z,101219
2017-01-03T02:32:50.962Z,101209
2017-01-03T02:33:51.053Z,101209
2017-01-03T02:34:50.545Z,101224
2017-01-03T02:35:50.611Z,101224
2017-01-03T02:36:51.388Z,101219
2017-01-03T02:37:50.701Z,101203
2017-01-03T02:38:50.749Z,101213
2017-01-03T02:39:51.343Z,101207
2017-01-03T02:40:51.394Z,101205
2017-01-03T02:41:50.933Z,101198
2017-01-03T02:42:51.536Z,101199
2017-01-03T02:43:51.009Z,101205
2017-01-03T02:44:51.634Z,101208
2017-01-03T02:45:51.102Z,101206
2017-01-03T02:46:51.252Z,101210
2017-01-03T02:47:51.774Z,101207
2017-01-03T02:48:51.853Z,101198
2017-01-03T02:49:51.345Z,101208
2017-01-03T02:50:51.930Z,101207
2017-01-03T02:51:51.989Z,101206
2017-01-03T02:52:52.009Z,101203
2017-01-03T02:53:52.012Z,101196
2017-01-03T02:54:52.157Z,101199
2017-01-03T02:55:52.090Z,101195
2017-01-03T02:56:52.147Z,101201
2017-01-03T02:57:52.132Z,101204
2017-01-03T02:58:51.672Z,101198
2017-01-03T02:59:52.259Z,101200
2017-01-03T03:00:51.669Z,101197
2017-01-03T03:01:51.738Z,101201
2017-01-03T03:02:52.393Z,101202
2017-01-03T03:03:51.800Z,101194
2017-01-03T03:04:51.838Z,101194
2017-01-03T03:05:52.376Z,101195
2017-01-03T03:06:52.509Z,101189
2017-01-03T03:07:52.518Z,101188
2017-01-03T03:08:52.059Z,101191
2017-01-03T03:09:52.146Z,101187
2017-01-03T03:10:53.256Z,101191
2017-01-03T03:11:52.236Z,101195
2017-01-03T03:12:52.880Z,101193
2017-01-03T03:13:52.966Z,101196
2017-01-03T03:14:53.035Z,101196
2017-01-03T03:15:53.089Z,101181
2017-01-03T03:16:52.565Z,101191
2017-01-03T03:17:53.374Z,101192
2017-01-03T03:18:52.828Z,101182
2017-01-03T03:19:53.339Z,101187
2017-01-03T03:20:53.408Z,101185
2017-01-03T03:21:53.439Z,101185
2017-01-03T03:22:52.962Z,101178
2017-01-03T03:23:53.525Z,101183
2017-01-03T03:24:53.512Z,101177
2017-01-03T03:25:53.576Z,101177
2017-01-03T03:26:53.082Z,101183
2017-01-03T03:27:53.638Z,101186
2017-01-03T03:28:53.197Z,101186
2017-01-03T03:29:53.250Z,101181
2017-01-03T03:30:53.263Z,101178
2017-01-03T03:31:53.810Z,101180
2017-01-03T03:32:53.326Z,101171
2017-01-03T03:33:53.422Z,101178
2017-01-03T03:34:54.052Z,101171
2017-01-03T03:35:53.478Z,101164
2017-01-03T03:36:53.526Z,101178
2017-01-03T03:37:53.494Z,101176
2017-01-03T03:38:53.511Z,101176
2017-01-03T03:39:54.135Z,101180
2017-01-03T03:40:54.198Z,101188
2017-01-03T03:41:54.275Z,101184
2017-01-03T03:42:53.679Z,101181
2017-01-03T03:43:54.262Z,101186
2017-01-03T03:44:54.364Z,101182
2017-01-03T03:45:54.397Z,101182
2017-01-03T03:46:53.808Z,101179
2017-01-03T03:47:53.897Z,101183
2017-01-03T03:48:54.025Z,101184
2017-01-03T03:49:54.020Z,101185
2017-01-03T03:50:54.562Z,101190
2017-01-03T03:51:54.608Z,101176
2017-01-03T03:52:54.685Z,101186
2017-01-03T03:53:54.747Z,101183
2017-01-03T03:54:54.317Z,101176
2017-01-03T03:55:54.363Z,101184
2017-01-03T03:56:54.390Z,101185
2017-01-03T03:57:54.941Z,101184
2017-01-03T03:58:55.032Z,101177
2017-01-03T03:59:54.486Z,101192
2017-01-03T04:00:55.083Z,101193
2017-01-03T04:01:54.643Z,101197
2017-01-03T04:02:55.188Z,101203
2017-01-03T04:03:55.236Z,101207
2017-01-03T04:04:55.220Z,101202
2017-01-03T04:05:55.293Z,101201
2017-01-03T04:06:54.785Z,101198
2017-01-03T04:07:54.842Z,101195
2017-01-03T04:08:55.403Z,101201
2017-01-03T04:09:55.440Z,101194
2017-01-03T04:10:55.057Z,101190
2017-01-03T04:11:55.113Z,101185
2017-01-03T04:12:55.131Z,101186
2017-01-03T04:13:55.747Z,101180
2017-01-03T04:14:55.858Z,101190
2017-01-03T04:15:55.412Z,101188
2017-01-03T04:16:55.957Z,101187
2017-01-03T04:17:55.453Z,101190
2017-01-03T04:18:56.050Z,101187
2017-01-03T04:19:56.100Z,101185
2017-01-03T04:20:55.606Z,101182
2017-01-03T04:21:56.202Z,101182
2017-01-03T04:22:55.642Z,101182
2017-01-03T04:23:56.210Z,101185
2017-01-03T04:24:55.683Z,101179
2017-01-03T04:25:56.237Z,101179
2017-01-03T04:26:55.785Z,101173
2017-01-03T04:27:55.797Z,101176
2017-01-03T04:28:56.407Z,101172
2017-01-03T04:29:56.467Z,101168
2017-01-03T04:30:55.998Z,101160
2017-01-03T04:31:55.965Z,101169
2017-01-03T04:32:56.065Z,101165
2017-01-03T04:33:56.162Z,101157
2017-01-03T04:34:56.191Z,101148
2017-01-03T04:35:56.827Z,101151
2017-01-03T04:36:56.826Z,101150
2017-01-03T04:37:56.256Z,101157
2017-01-03T04:38:56.305Z,101149
2017-01-03T04:39:56.347Z,101156
2017-01-03T04:40:56.402Z,101162
2017-01-03T04:41:56.444Z,101162
2017-01-03T04:42:57.060Z,101147
2017-01-03T04:43:57.097Z,101147
2017-01-03T04:44:57.104Z,101148
2017-01-03T04:45:56.605Z,101148
2017-01-03T04:46:57.212Z,101148
2017-01-03T04:47:57.283Z,101144
2017-01-03T04:48:57.308Z,101147
2017-01-03T04:49:56.838Z,101137
2017-01-03T04:50:57.415Z,101139
2017-01-03T04:51:56.928Z,101139
2017-01-03T04:52:57.003Z,101142
2017-01-03T04:53:57.627Z,101146
2017-01-03T04:54:57.141Z,101142
2017-01-03T04:55:57.715Z,101150
2017-01-03T04:56:57.728Z,101142
2017-01-03T04:57:57.815Z,101147
2017-01-03T04:58:57.270Z,101154
2017-01-03T04:59:57.384Z,101152
2017-01-03T05:00:57.420Z,101156
2017-01-03T05:01:57.453Z,101152
2017-01-03T05:02:58.001Z,101147
2017-01-03T05:03:58.072Z,101143
2017-01-03T05:04:58.128Z,101153
2017-01-03T05:05:57.627Z,101156
2017-01-03T05:06:58.227Z,101156
2017-01-03T05:07:58.255Z,101150
2017-01-03T05:08:58.332Z,101140
2017-01-03T05:09:58.348Z,101142
2017-01-03T05:10:58.389Z,101140
2017-01-03T05:11:58.428Z,101137
2017-01-03T05:12:57.966Z,101133
2017-01-03T05:13:58.078Z,101123
2017-01-03T05:14:58.061Z,101137
2017-01-03T05:15:58.137Z,101137
2017-01-03T05:16:58.704Z,101140
2017-01-03T05:17:58.214Z,101142
2017-01-03T05:18:58.179Z,101136
2017-01-03T05:19:58.844Z,101130
2017-01-03T05:20:58.306Z,101135
2017-01-03T05:21:58.322Z,101126
2017-01-03T05:22:58.389Z,101135
2017-01-03T05:23:58.468Z,101132
2017-01-03T05:24:58.602Z,101123
2017-01-03T05:25:59.070Z,101116
2017-01-03T05:26:58.665Z,101115
2017-01-03T05:27:59.281Z,101101
2017-01-03T05:28:59.325Z,101104
2017-01-03T05:29:58.764Z,101103
2017-01-03T05:30:58.847Z,101102
2017-01-03T05:31:59.406Z,101109
2017-01-03T05:32:59.473Z,101112
2017-01-03T05:33:58.955Z,101110
2017-01-03T05:34:59.540Z,101120
2017-01-03T05:35:59.582Z,101123
2017-01-03T05:36:59.108Z,101122
2017-01-03T05:37:59.634Z,101118
2017-01-03T05:38:59.779Z,101127
2017-01-03T05:39:59.809Z,101124
2017-01-03T05:40:59.880Z,101119
2017-01-03T05:41:59.367Z,101118
2017-01-03T05:42:59.936Z,101132
2017-01-03T05:43:59.399Z,101124
2017-01-03T05:45:00.044Z,101120
2017-01-03T05:45:59.584Z,101115
2017-01-03T05:46:59.630Z,101124
2017-01-03T05:47:59.636Z,101122
2017-01-03T05:49:00.206Z,101129
2017-01-03T05:50:00.334Z,101128
2017-01-03T05:51:00.314Z,101139
2017-01-03T05:51:59.792Z,101128
2017-01-03T05:52:59.842Z,101130
2017-01-03T05:54:00.405Z,101123
2017-01-03T05:55:00.416Z,101126
2017-01-03T05:56:00.462Z,101131
2017-01-03T05:57:00.037Z,101122
2017-01-03T05:58:00.590Z,101132
2017-01-03T05:59:00.649Z,101120
2017-01-03T06:00:00.204Z,101125
2017-01-03T06:01:00.768Z,101124
2017-01-03T06:02:00.337Z,101115
2017-01-03T06:03:00.443Z,101120
2017-01-03T06:04:00.466Z,101114
2017-01-03T06:05:01.004Z,101116
2017-01-03T06:06:00.466Z,101117
2017-01-03T06:07:01.054Z,101108
2017-01-03T06:08:00.611Z,101118
2017-01-03T06:09:00.558Z,101123
2017-01-03T06:10:01.189Z,101114
2017-01-03T06:11:01.252Z,101121
2017-01-03T06:12:00.724Z,101125
2017-01-03T06:13:01.337Z,101124
2017-01-03T06:14:01.445Z,101114
2017-01-03T06:15:01.468Z,101127
2017-01-03T06:16:00.904Z,101127
2017-01-03T06:17:00.927Z,101112
2017-01-03T06:18:01.557Z,101122
2017-01-03T06:19:01.641Z,101123
2017-01-03T06:20:01.121Z,101120
2017-01-03T06:21:01.698Z,101122
2017-01-03T06:22:01.801Z,101119
2017-01-03T06:23:01.804Z,101118
2017-01-03T06:24:01.311Z,101116
2017-01-03T06:25:01.951Z,101117
2017-01-03T06:26:01.423Z,101113
2017-01-03T06:27:01.983Z,101110
2017-01-03T06:28:01.485Z,101118
2017-01-03T06:29:01.987Z,101116
2017-01-03T06:30:02.028Z,101113
2017-01-03T06:31:01.521Z,101109
2017-01-03T06:32:01.552Z,101118
2017-01-03T06:33:01.583Z,101118
2017-01-03T06:34:01.664Z,101120
2017-01-03T06:35:01.692Z,101121
2017-01-03T06:36:01.791Z,101116
2017-01-03T06:37:02.291Z,101113
2017-01-03T06:38:01.750Z,101117
2017-01-03T06:39:01.832Z,101119
2017-01-03T06:40:01.846Z,101123
2017-01-03T06:41:01.922Z,101127
2017-01-03T06:42:02.571Z,101120
2017-01-03T06:43:02.552Z,101121
2017-01-03T06:44:02.581Z,101125
2017-01-03T06:45:02.016Z,101126
2017-01-03T06:46:02.599Z,101117
2017-01-03T06:47:02.632Z,101120
2017-01-03T06:48:02.669Z,101117
2017-01-03T06:49:02.182Z,101124
2017-01-03T06:50:02.815Z,101117
2017-01-03T06:51:02.329Z,101125
2017-01-03T06:52:02.359Z,101127
2017-01-03T06:53:02.955Z,101129
2017-01-03T06:54:03.028Z,101120
2017-01-03T06:55:02.578Z,101126
2017-01-03T06:56:02.569Z,101118
2017-01-03T06:57:02.654Z,101128
2017-01-03T06:58:02.757Z,101118
2017-01-03T06:59:02.805Z,101123
2017-01-03T07:00:03.399Z,101124
2017-01-03T07:01:02.871Z,101123
2017-01-03T07:02:03.435Z,101117
2017-01-03T07:03:03.489Z,101121
2017-01-03T07:04:03.020Z,101125
2017-01-03T07:05:03.039Z,101121
2017-01-03T07:06:03.152Z,101125
2017-01-03T07:07:03.717Z,101121
2017-01-03T07:08:03.155Z,101121
2017-01-03T07:09:03.207Z,101120
2017-01-03T07:10:03.824Z,101118
2017-01-03T07:11:03.205Z,101118
2017-01-03T07:12:03.766Z,101115
2017-01-03T07:13:03.235Z,101115
2017-01-03T07:14:03.810Z,101106
2017-01-03T07:15:03.829Z,101112
2017-01-03T07:16:03.339Z,101114
2017-01-03T07:17:03.362Z,101109
2017-01-03T07:18:03.920Z,101114
2017-01-03T07:19:03.507Z,101112
2017-01-03T07:20:03.449Z,101119
2017-01-03T07:21:04.068Z,101101
2017-01-03T07:22:04.162Z,101117
2017-01-03T07:23:04.187Z,101117
2017-01-03T07:24:03.775Z,101118
2017-01-03T07:25:04.416Z,101120
2017-01-03T07:26:04.444Z,101120
2017-01-03T07:27:04.462Z,101119
2017-01-03T07:28:04.458Z,101113
2017-01-03T07:29:03.956Z,101114
2017-01-03T07:30:03.921Z,101115
2017-01-03T07:31:03.914Z,101115
2017-01-03T07:32:04.560Z,101113
2017-01-03T07:33:04.603Z,101119
2017-01-03T07:34:04.611Z,101114
2017-01-03T07:35:04.642Z,101110
2017-01-03T07:36:04.646Z,101112
2017-01-03T07:37:04.093Z,101109
2017-01-03T07:38:04.698Z,101113
2017-01-03T07:39:04.827Z,101112
2017-01-03T07:40:04.814Z,101117
2017-01-03T07:41:04.378Z,101106
2017-01-03T07:42:04.921Z,101109
2017-01-03T07:43:04.986Z,101117
2017-01-03T07:44:05.034Z,101121
2017-01-03T07:45:04.613Z,101115
2017-01-03T07:46:04.569Z,101123
2017-01-03T07:47:04.664Z,101123
2017-01-03T07:48:04.701Z,101111
2017-01-03T07:49:04.759Z,101119
2017-01-03T07:50:05.291Z,101123
2017-01-03T07:51:05.384Z,101115
2017-01-03T07:52:04.854Z,101116
2017-01-03T07:53:04.942Z,101108
2017-01-03T07:54:04.968Z,101120
2017-01-03T07:55:05.063Z,101122
2017-01-03T07:56:05.603Z,101123
2017-01-03T07:57:05.768Z,101126
2017-01-03T07:58:05.620Z,101131
2017-01-03T07:59:05.117Z,101127
2017-01-03T08:00:05.184Z,101126
2017-01-03T08:01:05.773Z,101132
2017-01-03T08:02:05.856Z,101126
2017-01-03T08:03:05.904Z,101134
2017-01-03T08:04:05.928Z,101135
2017-01-03T08:05:05.376Z,101139
2017-01-03T08:06:05.443Z,101145
2017-01-03T08:07:05.979Z,101143
2017-01-03T08:08:05.444Z,101147
2017-01-03T08:09:05.487Z,101148
2017-01-03T08:10:06.041Z,101157
2017-01-03T08:11:05.556Z,101157
2017-01-03T08:12:06.087Z,101156
2017-01-03T08:13:06.215Z,101157
2017-01-03T08:14:06.218Z,101160
2017-01-03T08:15:06.270Z,101155
2017-01-03T08:16:06.299Z,101150
2017-01-03T08:17:05.794Z,101153
2017-01-03T08:18:05.798Z,101160
2017-01-03T08:19:05.927Z,101158
2017-01-03T08:20:05.880Z,101158
2017-01-03T08:21:06.477Z,101154
2017-01-03T08:22:06.012Z,101164
2017-01-03T08:23:06.589Z,101156
2017-01-03T08:24:06.625Z,101159
2017-01-03T08:25:06.126Z,101157
2017-01-03T08:26:06.329Z,101165
2017-01-03T08:27:06.796Z,101161
2017-01-03T08:28:06.836Z,101166
2017-01-03T08:29:06.910Z,101169
2017-01-03T08:30:06.976Z,101170
2017-01-03T08:31:06.504Z,101177
2017-01-03T08:32:07.047Z,101181
2017-01-03T08:33:07.099Z,101180
2017-01-03T08:34:06.601Z,101184
2017-01-03T08:35:07.356Z,101181
2017-01-03T08:36:07.322Z,101184
2017-01-03T08:37:07.350Z,101182
2017-01-03T08:38:07.361Z,101171
2017-01-03T08:39:06.925Z,101175
2017-01-03T08:40:07.429Z,101176
2017-01-03T08:41:06.957Z,101176
2017-01-03T08:42:07.043Z,101172
2017-01-03T08:43:07.601Z,101178
2017-01-03T08:44:07.574Z,101176
2017-01-03T08:45:07.169Z,101176
2017-01-03T08:46:07.213Z,101172
2017-01-03T08:47:07.820Z,101176
2017-01-03T08:48:07.364Z,101180
2017-01-03T08:49:07.427Z,101169
2017-01-03T08:50:07.504Z,101176
2017-01-03T08:51:07.577Z,101176
2017-01-03T08:52:08.102Z,101182
2017-01-03T08:53:07.670Z,101181
2017-01-03T08:54:08.224Z,101182
2017-01-03T08:55:07.735Z,101180
2017-01-03T08:56:08.553Z,101175
2017-01-03T08:57:08.304Z,101175
2017-01-03T08:58:08.453Z,101176
2017-01-03T08:59:07.950Z,101180
2017-01-03T09:00:08.531Z,101178
2017-01-03T09:01:08.026Z,101172
2017-01-03T09:02:08.617Z,101175
2017-01-03T09:03:08.123Z,101175
2017-01-03T09:04:08.758Z,101170
2017-01-03T09:05:08.236Z,101177
2017-01-03T09:06:08.306Z,101172
2017-01-03T09:07:08.893Z,101176
2017-01-03T09:08:08.965Z,101174
2017-01-03T09:09:09.059Z,101175
2017-01-03T09:10:09.065Z,101178
2017-01-03T09:11:09.077Z,101181
2017-01-03T09:12:09.096Z,101175
2017-01-03T09:13:08.618Z,101179
2017-01-03T09:14:09.255Z,101181
2017-01-03T09:15:08.760Z,101185
2017-01-03T09:16:09.321Z,101172
2017-01-03T09:17:08.843Z,101178
2017-01-03T09:18:08.950Z,101178
2017-01-03T09:19:09.539Z,101181
2017-01-03T09:20:09.559Z,101169
2017-01-03T09:21:09.660Z,101171
2017-01-03T09:22:09.702Z,101171
2017-01-03T09:23:09.191Z,101161
2017-01-03T09:24:09.824Z,101172
2017-01-03T09:25:09.296Z,101172
2017-01-03T09:26:09.862Z,101159
2017-01-03T09:27:09.915Z,101165
2017-01-03T09:28:09.441Z,101168
2017-01-03T09:29:09.544Z,101168
2017-01-03T09:30:10.124Z,101173
2017-01-03T09:31:10.184Z,101166
2017-01-03T09:32:09.670Z,101168
2017-01-03T09:33:10.233Z,101166
2017-01-03T09:34:10.312Z,101178
2017-01-03T09:35:09.864Z,101174
2017-01-03T09:36:10.394Z,101171
2017-01-03T09:37:10.444Z,101178
2017-01-03T09:38:10.593Z,101178
2017-01-03T09:39:10.589Z,101180
2017-01-03T09:40:10.627Z,101178
2017-01-03T09:41:10.691Z,101170
2017-01-03T09:42:10.212Z,101174
2017-01-03T09:43:10.742Z,101175
2017-01-03T09:44:10.228Z,101177
2017-01-03T09:45:10.274Z,101178
2017-01-03T09:46:10.316Z,101185
2017-01-03T09:47:10.360Z,101181
2017-01-03T09:48:10.428Z,101181
2017-01-03T09:49:10.973Z,101176
2017-01-03T09:50:10.472Z,101176
2017-01-03T09:51:11.097Z,101181
2017-01-03T09:52:10.521Z,101175
2017-01-03T09:53:11.133Z,101183
2017-01-03T09:54:11.111Z,101180
2017-01-03T09:55:11.125Z,101177
2017-01-03T09:56:10.672Z,101167
2017-01-03T09:57:11.206Z,101173
2017-01-03T09:58:11.292Z,101168
2017-01-03T09:59:11.361Z,101179
2017-01-03T10:00:11.416Z,101169
2017-01-03T10:01:11.409Z,101168
2017-01-03T10:02:11.490Z,101158
2017-01-03T10:03:11.536Z,101172
2017-01-03T10:04:11.017Z,101158
2017-01-03T10:05:11.627Z,101164
2017-01-03T10:06:11.162Z,101163
2017-01-03T10:07:11.819Z,101163
2017-01-03T10:08:11.918Z,101159
2017-01-03T10:09:12.000Z,101160
2017-01-03T10:10:12.898Z,101157
2017-01-03T10:11:12.133Z,101153
2017-01-03T10:12:12.190Z,101154
2017-01-03T10:13:11.652Z,101142
2017-01-03T10:14:11.681Z,101140
2017-01-03T10:15:12.317Z,101152
2017-01-03T10:16:11.766Z,101144
2017-01-03T10:17:12.365Z,101149
2017-01-03T10:18:13.397Z,101149
2017-01-03T10:19:11.912Z,101150
2017-01-03T10:20:11.985Z,101139
2017-01-03T10:21:12.053Z,101139
2017-01-03T10:22:12.162Z,101147
2017-01-03T10:23:12.204Z,101150
2017-01-03T10:24:12.272Z,101141
2017-01-03T10:25:12.874Z,101141
2017-01-03T10:26:12.352Z,101142
2017-01-03T10:27:12.369Z,101135
2017-01-03T10:28:12.481Z,101141
2017-01-03T10:29:12.467Z,101140
2017-01-03T10:30:12.482Z,101134
2017-01-03T10:31:12.525Z,101121
2017-01-03T10:32:13.187Z,101127
2017-01-03T10:33:13.239Z,101125
2017-01-03T10:34:13.319Z,101122
2017-01-03T10:35:12.869Z,101124
2017-01-03T10:36:12.905Z,101126
2017-01-03T10:37:13.006Z,101123
2017-01-03T10:38:12.980Z,101117
2017-01-03T10:39:13.003Z,101126
2017-01-03T10:40:13.110Z,101122
2017-01-03T10:41:13.650Z,101126
2017-01-03T10:42:13.210Z,101125
2017-01-03T10:43:13.165Z,101125
2017-01-03T10:44:13.306Z,101124
2017-01-03T10:45:13.348Z,101120
2017-01-03T10:46:13.915Z,101126
2017-01-03T10:47:13.439Z,101121
2017-01-03T10:48:14.031Z,101126
2017-01-03T10:49:13.515Z,101111
2017-01-03T10:50:14.074Z,101114
2017-01-03T10:51:14.142Z,101107
2017-01-03T10:52:13.615Z,101111
2017-01-03T10:53:13.698Z,101106
2017-01-03T10:54:14.265Z,101112
2017-01-03T10:55:14.373Z,101111
2017-01-03T10:56:13.885Z,101108
2017-01-03T10:57:14.525Z,101110
2017-01-03T10:58:14.502Z,101096
2017-01-03T10:59:13.999Z,101094
2017-01-03T11:00:14.001Z,101107
2017-01-03T11:01:14.595Z,101110
2017-01-03T11:02:14.143Z,101107
2017-01-03T11:03:14.349Z,101105
2017-01-03T11:04:14.755Z,101106
2017-01-03T11:05:16.333Z,101109
2017-01-03T11:06:15.071Z,101102
2017-01-03T11:07:14.543Z,101101
2017-01-03T11:08:14.508Z,101090
2017-01-03T11:09:14.503Z,101076
2017-01-03T11:10:14.641Z,101078
2017-01-03T11:11:15.187Z,101070
2017-01-03T11:12:15.248Z,101081
2017-01-03T11:13:14.788Z,101074
2017-01-03T11:14:14.806Z,101082
2017-01-03T11:15:15.391Z,101086
2017-01-03T11:16:15.426Z,101084
2017-01-03T11:17:15.480Z,101078
2017-01-03T11:18:15.539Z,101080
2017-01-03T11:19:15.044Z,101073
2017-01-03T11:20:15.644Z,101067
2017-01-03T11:21:15.151Z,101065
2017-01-03T11:22:15.742Z,101062
2017-01-03T11:23:15.795Z,101072
2017-01-03T11:24:15.394Z,101076
2017-01-03T11:25:16.003Z,101072
2017-01-03T11:26:15.536Z,101063
2017-01-03T11:27:15.522Z,101059
2017-01-03T11:28:16.187Z,101063
2017-01-03T11:29:15.653Z,101065
2017-01-03T11:30:15.738Z,101048
2017-01-03T11:31:15.746Z,101047
2017-01-03T11:32:16.360Z,101056
2017-01-03T11:33:16.401Z,101053
2017-01-03T11:34:16.521Z,101053
2017-01-03T11:35:15.992Z,101047
2017-01-03T11:36:16.631Z,101046
2017-01-03T11:37:16.729Z,101046
2017-01-03T11:38:16.730Z,101037
2017-01-03T11:39:16.313Z,101036
2017-01-03T11:40:16.347Z,101032
2017-01-03T11:41:16.351Z,101027
2017-01-03T11:42:16.470Z,101029
2017-01-03T11:43:17.082Z,101028
2017-01-03T11:44:17.094Z,101038
2017-01-03T11:45:16.554Z,101029
2017-01-03T11:46:17.205Z,101024
2017-01-03T11:47:17.271Z,101030
2017-01-03T11:48:17.279Z,101032
2017-01-03T11:49:16.737Z,101034
2017-01-03T11:50:17.326Z,101030
2017-01-03T11:51:17.330Z,101014
2017-01-03T11:52:16.859Z,101019
2017-01-03T11:53:17.393Z,101019
2017-01-03T11:54:17.443Z,101011
2017-01-03T11:55:16.917Z,101009
2017-01-03T11:56:17.508Z,101017
2017-01-03T11:57:17.011Z,101010
2017-01-03T11:58:17.656Z,100999
2017-01-03T11:59:17.131Z,101000
2017-01-03T12:00:17.704Z,100994
2017-01-03T12:01:17.200Z,100995
2017-01-03T12:02:17.821Z,100988
2017-01-03T12:03:17.265Z,100986
2017-01-03T12:04:17.305Z,100974
2017-01-03T12:05:17.865Z,100973
2017-01-03T12:06:17.892Z,100981
2017-01-03T12:07:17.374Z,100979
2017-01-03T12:08:17.990Z,100982
2017-01-03T12:09:17.510Z,100984
2017-01-03T12:10:17.561Z,100976
2017-01-03T12:11:18.205Z,100978
2017-01-03T12:12:18.211Z,100980
2017-01-03T12:13:18.317Z,100983
2017-01-03T12:14:17.781Z,100979
2017-01-03T12:15:17.810Z,100970
2017-01-03T12:16:18.426Z,100965
2017-01-03T12:17:18.513Z,100970
2017-01-03T12:18:18.592Z,100955
2017-01-03T12:19:18.083Z,100971
2017-01-03T12:20:18.810Z,100965
2017-01-03T12:21:18.822Z,100960
2017-01-03T12:22:18.715Z,100973
2017-01-03T12:23:18.335Z,100968
2017-01-03T12:24:18.856Z,100968
2017-01-03T12:25:18.352Z,100967
2017-01-03T12:26:18.426Z,100959
2017-01-03T12:27:19.028Z,100963
2017-01-03T12:28:18.578Z,100961
2017-01-03T12:29:18.608Z,100960
2017-01-03T12:30:18.641Z,100960